Aktualne dane pomiarowe

Uwaga, wersja testowa! Automatyczne pobieranie danych za pomocą narzędzi lub skryptów to umożliwiających jest zabronione.

Dane meteo z obszaru Polski uzyskane na podstawie depesz SYNOP pobieranych co godzinę z NWS. Najedź myszką na symbol przedstawiony w tabeli, aby uzyskać informacje co do jego znaczenia. Prosimy pamiętać, że to testowa wersja strony, która jeszcze nie jest ukończona. Stworzono również jest krótki FAQ dotyczący korzystania z tej podstrony Anomalie temperatury w chwili obecnej odniesione są do okresu referencyjnego 1951-2016. Okres ten będzie później zmieniony na 1981-2010. Kliknij ikonę aby pobrać plik CSV. Kliknij ikonę aby wygenerować mapę synoptyczną dla danego terminu.

Wybierz Datę:    

        

Mława (12270)

Dane terminowe dla wybranej stacji. Kliknij datę, aby otrzymać dane z tego terminu dla wszystkich stacji.

TemperaturaZachmurzenieWiatrCiśnienieOpadyPogoda
 Data t td wb tx tn tg rh  Nt Nl Cl Cm Ch ws wd g1 g2 wx mslp ppp ch 24h 12h t ww ww w1 w2  
2019-07-12 23:00:00 15.2 12.0 13.1--- 8130.0wx-wx0---01009.9 992.3 0.0---------
2019-07-12 22:00:00 15.4 11.8 13.0--- 7930.0wx-wx1wx---1009.9 992.3 0.3---------
2019-07-12 21:00:00 15.9 12.3 13.5--- 7921.0wx-wxwx2wx--21009.9 992.3 0.7---------
2019-07-12 20:00:00 17.6 12.9 14.5--- 7440.0wxwxwxwxwx1wx--11009.8 992.3 0.8---------
2019-07-12 19:00:00 18.7 13.1 15.1--- 7045.0wxwxwxwx2wx--21009.4 992.0 0.8---------
2019-07-12 18:00:00 19.9 12.6 15.3 24.8 13.9- 6350.0wxwxwxwx2wx-821008.9 991.6 0.1- 0.012------
2019-07-12 17:00:00 22.2 12.2 16.0--- 5330.0wxwxwxwx3wx--31008.7 991.5 -0.2---------
2019-07-12 16:00:00 24.2 8.2 15.1--- 3640.0wxwxwxwx3wx--31008.2 991.2 -0.8---------
2019-07-12 15:00:00 23.3 10.4 15.7--- 4450.0wxwxwxwx2wx-821008.6 991.5 -0.7---------
2019-07-12 14:00:00 22.7 8.4 14.5--- 4040.0wxwxwxwx3wx--31008.8 991.7 -0.9---------
2019-07-12 13:00:00 24.3 9.1 15.5--- 3830.0wxwxwxwxwx3wx-831009.1 992.0 -0.7---------
2019-07-12 12:00:00 24.2 8.6 15.2--- 3735.0wxwxwxwxwx3wx--31009.3 992.2 -0.7- 0.06------
2019-07-12 11:00:00 22.6 6.8 13.8--- 3645.0wxwxwxwxwx3wx--31009.8 992.6 -0.6---------
2019-07-12 10:00:00 22.3 8.0 14.2--- 4040.0wxwxwxwxwx4wx--41009.9 992.7 -0.5---------
2019-07-12 09:00:00 21.0 8.3 13.7--- 4445.0wxwxwxwxwx4wx--41010.2 992.9 -0.4---------
2019-07-12 08:00:00 19.7 8.4 13.2--- 4845.0wxwxwxwxwx3wx--31010.5 993.2 -0.1---------
2019-07-12 07:00:00 19.3 8.6 13.1--- 5035.0wx-wx3wx--31010.6 993.2 -0.1---------
2019-07-12 06:00:00 13.9 10.5 11.7 18.9 7.5 6 8030.0wxwxwxwxwx0---01011.0 993.3 0.1- 0.012----- 5.6
2019-07-12 05:00:00 11.0 10.2 10.4--- 9510.0wx-wxwx0----1011.2 993.3 0.1---------
2019-07-12 04:00:00 9.7 9.1 9.2--- 9611.0wx-wxwx0---01011.3 993.3 -0.1---------
2019-07-12 03:00:00 8.1 7.8 7.8--- 9812.0wx-wxwx0---01011.3 993.2 -0.5---------
2019-07-12 02:00:00 8.4 8.0 8.1--- 9710.0wx-wxwx0---01011.2 993.2 -0.7---------
2019-07-12 01:00:00 8.8 8.0 8.2--- 9513.0wx-wxwx0---01011.4 993.4 -0.6---------
2019-07-12 00:00:00 8.6 8.0 8.1--- 9611.0wx-wxwx0---01011.7 993.7 -0.2- 0.06------
2019-07-11 23:00:00 9.3 8.2 8.5--- 9312.0wx-wxwx1wx--11011.9 993.9 0.2---------
2019-07-11 22:00:00 11.0 8.7 9.5--- 8620.0wx-wxwx0---01011.9 994.0 0.6---------
2019-07-11 21:00:00 12.9 8.6 10.2--- 7523.0wx-wxwx1wx--11011.7 993.9 0.8---------
2019-07-11 20:00:00 15.3 8.5 11.2--- 6445.0wx-wxwx1wx--11011.3 993.7 0.7---------
2019-07-11 19:00:00 16.7 8.4 11.8--- 5850.0wxwxwxwx2wx--21010.9 993.4 0.4---------
2019-07-11 18:00:00 18.9 7.6 12.5 21.4 13.3- 4850.0wxwxwxwx2wx-921010.5 993.1 0.0- 0.012------
2019-07-11 17:00:00 20.3 8.0 13.3--- 4545.0wxwxwxwxwx5wx--51010.3 993.0 -0.2---------
2019-07-11 16:00:00 20.7 8.0 13.5--- 4445.0wxwxwxwxwx5wx--51010.3 993.0 -0.4---------
2019-07-11 15:00:00 20.5 10.0 14.3--- 5145.0wxwxwxwxwx4wx-941010.4 993.1 -0.5---------
2019-07-11 14:00:00 20.8 8.8 13.9--- 4645.0wxwxwxwx5wx--51010.5 993.2 -0.4---------
2019-07-11 13:00:00 19.6 8.3 13.1--- 4845.0wxwxwxwx4wx9941010.8 993.4 -0.6---------
2019-07-11 12:00:00 19.0 8.3 12.8--- 5045.0wxwxwx5wx--51011.0 993.6 -0.5- 0.06------
2019-07-11 11:00:00 18.8 7.2 12.3--- 4740.0wxwxwx4wx--41011.0 993.6 -0.3---------
2019-07-11 10:00:00 17.7 9.3 12.7--- 5845.0wxwxwx4wx--41011.5 994.0 0.2---------
2019-07-11 09:00:00 17.7 8.5 12.3--- 5540.0wxwxwx4wx--41011.6 994.1 0.4---------
2019-07-11 08:00:00 16.4 10.0 12.5--- 6635.0wxwxwx2wx--21011.5 993.9 0.5---------
2019-07-11 07:00:00 14.4 10.4 11.8--- 7740.0wxwxwx2wx---1011.5 993.8 0.6---------
2019-07-11 06:00:00 13.3 10.7 11.6 15.4 9.2 8 8435.0wxwxwx3wx--31011.4 993.7 0.6 0.2 0.012----- 2.8
2019-07-11 05:00:00 12.1 11.0 11.3--- 9320.0wxwxwx3wx--31011.2 993.4 0.3---------
2019-07-11 04:00:00 10.6 10.3 10.3--- 989.0wxwxwx2wx--21011.1 993.2 -0.1---wx---
2019-07-11 03:00:00 9.2 8.9 8.9--- 987.0wxwxwx2wx--21011.1 993.1 -0.3---wx---
2019-07-11 02:00:00 9.6 9.1 9.2--- 9712.0wxwxwx2wx--21011.1 993.1 -0.3---------
2019-07-11 01:00:00 9.5 9.0 9.1--- 9715.0wxwxwx2wx--21011.3 993.3 -0.3---------
2019-07-11 00:00:00 9.9 9.1 9.3--- 9521.0wxwxwx2wx--21011.4 993.4 -0.1- 0.06------
1.2 ms

 

Print Friendly, PDF & Email